Time;durP1;ratioP1;P1;durP2;ratioP2;P2;SDS_P1;SDS_P2;PMS_P1;PMS_P2;Temp;Humidity;BMP_temperature;BMP_pressure;BME280_temperature;BME280_humidity;BME280_pressure;Samples;Min_cycle;Max_cycle;Signal;HPM_P1;HPM_P2
2023/05/28 00:02:15;;;;;;;13.75;7.22;;;;;;;20.88;60.17;98488.59;5090668;28;20035;-44
2023/05/28 00:04:42;;;;;;;13.30;7.32;;;;;;;20.97;59.43;98486.19;5073586;28;20032;-44
2023/05/28 00:07:10;;;;;;;16.58;6.72;;;;;;;21.03;59.19;98481.63;5091644;28;20020;-44
2023/05/28 00:09:37;;;;;;;12.60;7.30;;;;;;;21.03;59.11;98486.97;5091588;28;20099;-45
2023/05/28 00:12:03;;;;;;;14.77;6.90;;;;;;;21.08;59.22;98485.06;5090254;28;20498;-44
2023/05/28 00:14:29;;;;;;;17.05;6.80;;;;;;;21.07;58.55;98482.69;5091623;28;20440;-44
2023/05/28 00:16:56;;;;;;;12.25;6.45;;;;;;;20.95;58.28;98475.78;5091615;28;20488;-44
2023/05/28 00:19:22;;;;;;;18.60;6.65;;;;;;;20.72;58.68;98482.53;5090190;28;20063;-44
2023/05/28 00:21:48;;;;;;;14.98;6.45;;;;;;;20.61;59.46;98480.19;5091779;28;20478;-45
2023/05/28 00:24:13;;;;;;;13.93;7.25;;;;;;;20.59;59.49;98479.66;5090242;28;20107;-44
2023/05/28 00:26:39;;;;;;;15.77;7.63;;;;;;;20.65;59.76;98482.03;5090155;28;20524;-44
2023/05/28 00:29:05;;;;;;;20.20;9.23;;;;;;;20.77;59.03;98489.72;5090074;28;20548;-45
2023/05/28 00:31:31;;;;;;;12.52;7.63;;;;;;;20.69;59.17;98482.28;5089979;28;20048;-44
2023/05/28 00:33:56;;;;;;;12.85;7.13;;;;;;;20.53;59.72;98479.63;5090104;28;20027;-44
2023/05/28 00:36:22;;;;;;;10.27;6.75;;;;;;;20.54;59.75;98475.91;5090160;28;20047;-45
2023/05/28 00:38:48;;;;;;;13.30;7.70;;;;;;;20.33;60.16;98477.00;5090101;28;20062;-44
2023/05/28 00:41:22;;;;;;;12.02;7.50;;;;;;;20.18;60.50;98483.13;5090050;28;20039;-44
2023/05/28 00:43:51;;;;;;;13.52;7.10;;;;;;;19.94;61.33;98473.03;5091270;28;20028;-44
2023/05/28 00:46:21;;;;;;;10.95;7.60;;;;;;;19.86;61.77;98476.25;5090014;28;20082;-44
2023/05/28 00:48:48;;;;;;;10.45;6.40;;;;;;;19.85;61.84;98481.81;5074496;28;20020;-44
2023/05/28 00:51:15;;;;;;;11.25;6.60;;;;;;;19.82;61.82;98485.84;5093634;28;20032;-44
2023/05/28 00:53:41;;;;;;;12.48;7.18;;;;;;;19.67;62.15;98480.44;5076772;28;20081;-44
2023/05/28 00:56:08;;;;;;;14.98;7.15;;;;;;;19.56;62.56;98490.28;5093479;28;20027;-44
2023/05/28 00:58:39;;;;;;;15.60;7.60;;;;;;;19.60;62.79;98491.38;5093533;28;20497;-44
2023/05/28 01:01:06;;;;;;;12.30;7.40;;;;;;;19.72;62.58;98491.94;5093545;28;20052;-44
2023/05/28 01:03:32;;;;;;;12.52;6.43;;;;;;;19.92;61.90;98501.00;5094734;28;20027;-44
2023/05/28 01:06:01;;;;;;;13.55;7.45;;;;;;;20.06;61.02;98490.59;5093355;28;20028;-44
2023/05/28 01:08:27;;;;;;;17.45;7.63;;;;;;;20.23;61.00;98493.00;5094723;28;20031;-44
2023/05/28 01:10:53;;;;;;;14.77;7.47;;;;;;;20.25;60.73;98496.22;5093187;28;20581;-44
2023/05/28 01:13:19;;;;;;;18.58;7.72;;;;;;;20.26;60.34;98503.13;5094552;28;20091;-44
2023/05/28 01:15:45;;;;;;;8.90;6.32;;;;;;;20.30;60.45;98501.50;5093230;28;20080;-45
2023/05/28 01:18:11;;;;;;;14.68;7.53;;;;;;;20.40;59.96;98496.16;5093076;28;20439;-44
2023/05/28 01:20:37;;;;;;;13.93;6.95;;;;;;;20.51;59.45;98497.75;5093062;28;20038;-45
2023/05/28 01:23:11;;;;;;;18.05;7.40;;;;;;;20.52;59.50;98494.03;5093054;28;20127;-44
2023/05/28 01:25:40;;;;;;;13.75;7.97;;;;;;;20.49;59.83;98496.44;5094600;28;20387;-44
2023/05/28 01:28:15;;;;;;;16.50;7.80;;;;;;;20.51;59.97;98495.09;5094238;28;20027;-44
2023/05/28 01:30:43;;;;;;;16.38;8.18;;;;;;;20.50;59.46;98495.34;5092571;28;20517;-44
2023/05/28 01:33:11;;;;;;;11.63;7.55;;;;;;;20.44;59.52;98493.78;5094109;28;20081;-45
2023/05/28 01:35:38;;;;;;;10.13;7.47;;;;;;;20.15;60.09;98497.81;5094152;28;20051;-44
2023/05/28 01:38:04;;;;;;;12.93;7.60;;;;;;;20.04;60.91;98506.88;5092722;28;20024;-45
2023/05/28 01:40:32;;;;;;;16.55;7.80;;;;;;;19.97;61.28;98498.34;5092738;28;20035;-44
2023/05/28 01:42:59;;;;;;;22.85;7.45;;;;;;;19.93;61.38;98502.59;5093966;28;20047;-44
2023/05/28 01:45:25;;;;;;;16.08;6.97;;;;;;;19.90;61.04;98505.78;5092894;28;20560;-44
2023/05/28 01:47:51;;;;;;;19.48;7.75;;;;;;;19.78;61.09;98494.59;5092596;28;20111;-44
2023/05/28 01:50:18;;;;;;;12.88;6.97;;;;;;;19.66;61.53;98495.63;5092574;28;20066;-44
2023/05/28 01:52:44;;;;;;;12.63;7.22;;;;;;;19.63;61.62;98498.03;5092512;28;20070;-45
2023/05/28 01:55:11;;;;;;;13.77;7.53;;;;;;;19.63;61.63;98498.81;5092346;28;20084;-44
2023/05/28 01:57:38;;;;;;;16.17;7.75;;;;;;;19.60;61.69;98495.88;5092535;28;20038;-44
2023/05/28 02:00:06;;;;;;;16.77;8.48;;;;;;;19.52;62.12;98492.69;5091936;28;20020;-44
2023/05/28 02:02:32;;;;;;;16.88;7.97;;;;;;;19.46;62.82;98496.41;5093277;28;20024;-44
2023/05/28 02:04:58;;;;;;;13.57;7.38;;;;;;;19.61;61.97;98495.63;5075527;28;20020;-44
2023/05/28 02:07:23;;;;;;;12.75;7.18;;;;;;;19.63;61.31;98496.16;5075408;28;20043;-44
2023/05/28 02:09:49;;;;;;;15.15;7.80;;;;;;;19.58;61.52;98501.47;5093399;28;20024;-44
2023/05/28 02:12:15;;;;;;;15.23;7.68;;;;;;;19.54;61.52;98495.09;5092073;28;20516;-44
2023/05/28 02:14:42;;;;;;;16.25;7.55;;;;;;;19.52;62.09;98495.34;5092057;28;20386;-44
2023/05/28 02:17:09;;;;;;;14.40;7.28;;;;;;;19.65;61.80;98501.22;5091959;28;20031;-44
2023/05/28 02:19:35;;;;;;;14.75;8.52;;;;;;;19.81;61.30;98497.53;5093506;28;20397;-44
2023/05/28 02:22:01;;;;;;;11.70;7.07;;;;;;;19.83;61.13;98495.41;5075048;28;20119;-44
2023/05/28 02:24:27;;;;;;;17.30;8.32;;;;;;;19.87;60.73;98493.81;5091870;28;20058;-45
2023/05/28 02:26:54;;;;;;;20.88;7.97;;;;;;;19.67;61.14;98489.22;5093116;28;20051;-45
2023/05/28 02:29:20;;;;;;;14.73;7.90;;;;;;;19.46;61.86;98492.94;5091705;28;20034;-45
2023/05/28 02:31:46;;;;;;;19.23;8.00;;;;;;;19.33;62.94;98495.00;5092940;28;20095;-44
2023/05/28 02:34:12;;;;;;;11.38;8.10;;;;;;;19.28;62.70;98495.00;5091649;28;20432;-44
2023/05/28 02:36:37;;;;;;;14.82;7.85;;;;;;;19.17;63.14;98488.06;5091600;28;20036;-44
2023/05/28 02:39:03;;;;;;;19.83;7.75;;;;;;;19.18;62.88;98489.66;5091739;28;20028;-44
2023/05/28 02:41:29;;;;;;;15.05;7.22;;;;;;;19.19;62.77;98499.22;5092904;28;20023;-44
2023/05/28 02:43:55;;;;;;;14.57;8.10;;;;;;;19.00;63.10;98492.78;5092763;28;20423;-44
2023/05/28 02:46:20;;;;;;;12.82;7.43;;;;;;;18.83;63.19;98496.41;5091498;28;20051;-44
2023/05/28 02:48:46;;;;;;;16.42;7.80;;;;;;;18.68;63.79;98504.31;5091418;28;20024;-44
2023/05/28 02:51:12;;;;;;;11.25;7.72;;;;;;;18.49;63.92;98491.44;5091274;28;20028;-44
2023/05/28 02:53:38;;;;;;;10.77;7.40;;;;;;;18.29;64.87;98499.25;5091320;28;20026;-44
2023/05/28 02:56:03;;;;;;;17.38;8.30;;;;;;;18.06;65.83;98495.91;5091272;28;20062;-44
2023/05/28 02:58:30;;;;;;;9.68;7.95;;;;;;;18.05;66.13;98498.81;5091256;28;20031;-44
2023/05/28 03:00:56;;;;;;;24.33;8.75;;;;;;;18.07;66.47;98502.84;5091172;28;20119;-44
2023/05/28 03:03:22;;;;;;;12.20;7.32;;;;;;;18.09;66.22;98500.72;5091161;28;20048;-44
2023/05/28 03:05:50;;;;;;;18.58;7.43;;;;;;;18.07;66.05;98494.88;5091048;28;20059;-44
2023/05/28 03:08:16;;;;;;;15.32;6.88;;;;;;;17.88;66.51;98501.59;5091101;28;20028;-44
2023/05/28 03:10:42;;;;;;;21.25;8.63;;;;;;;17.95;67.50;98507.53;5090438;28;20118;-44
2023/05/28 03:13:08;;;;;;;15.07;7.65;;;;;;;18.02;66.55;98504.66;5090749;28;20518;-44
2023/05/28 03:15:35;;;;;;;18.83;8.35;;;;;;;18.05;67.08;98504.13;5090933;28;20024;-44
2023/05/28 03:18:01;;;;;;;19.55;7.20;;;;;;;18.16;66.30;98498.66;5090975;28;20024;-44
2023/05/28 03:20:26;;;;;;;15.70;7.85;;;;;;;18.12;65.90;98502.88;5092208;28;20103;-44
2023/05/28 03:22:59;;;;;;;13.75;7.85;;;;;;;18.03;65.99;98500.91;5092198;28;20454;-44
2023/05/28 03:25:25;;;;;;;15.00;7.55;;;;;;;17.81;66.88;98500.97;5090801;28;20059;-44
2023/05/28 03:27:52;;;;;;;14.35;8.30;;;;;;;17.78;66.93;98502.28;5092189;28;20028;-44
2023/05/28 03:30:21;;;;;;;13.75;8.05;;;;;;;17.82;67.27;98502.59;5091664;28;20488;-44
2023/05/28 03:32:47;;;;;;;16.73;7.50;;;;;;;18.17;66.56;98510.09;5090758;28;20578;-44
2023/05/28 03:35:13;;;;;;;18.95;7.85;;;;;;;18.24;65.29;98512.53;5090727;28;20028;-45
2023/05/28 03:37:39;;;;;;;16.38;7.55;;;;;;;18.22;65.28;98509.31;5091998;28;20069;-44
2023/05/28 03:40:06;;;;;;;17.00;8.00;;;;;;;18.23;65.36;98510.91;5090889;28;20115;-44
2023/05/28 03:42:32;;;;;;;11.68;7.10;;;;;;;18.24;65.08;98502.69;5090662;28;20148;-44
2023/05/28 03:44:58;;;;;;;9.73;7.32;;;;;;;18.27;64.93;98504.84;5091904;28;20032;-44
2023/05/28 03:47:24;;;;;;;16.27;7.53;;;;;;;18.25;64.85;98500.81;5090629;28;20082;-44
2023/05/28 03:49:50;;;;;;;14.13;7.47;;;;;;;18.26;65.10;98513.06;5092078;28;20016;-45
2023/05/28 03:52:16;;;;;;;15.25;7.40;;;;;;;18.21;64.93;98502.41;5073754;28;20421;-45
2023/05/28 03:54:41;;;;;;;16.25;8.85;;;;;;;18.05;65.20;98510.25;5073767;28;20396;-45
2023/05/28 03:57:07;;;;;;;9.77;6.93;;;;;;;17.94;65.39;98509.34;5090470;28;20032;-44
2023/05/28 03:59:33;;;;;;;11.40;7.15;;;;;;;17.83;66.04;98507.69;5091791;28;20028;-44
2023/05/28 04:01:58;;;;;;;12.43;6.50;;;;;;;17.89;66.11;98509.31;5090377;28;20107;-44
2023/05/28 04:04:24;;;;;;;18.52;8.55;;;;;;;17.98;65.85;98504.34;5090446;28;20024;-44
2023/05/28 04:06:50;;;;;;;11.73;7.43;;;;;;;17.89;65.75;98509.31;5091653;28;20024;-44
2023/05/28 04:09:16;;;;;;;10.35;8.15;;;;;;;17.80;66.45;98504.69;5090283;28;20123;-47
2023/05/28 04:11:42;;;;;;;13.98;7.95;;;;;;;17.63;67.39;98502.94;5090234;28;20089;-47
2023/05/28 04:14:09;;;;;;;18.38;8.50;;;;;;;17.69;67.61;98512.56;5090240;28;20052;-47
2023/05/28 04:16:35;;;;;;;16.48;8.00;;;;;;;17.68;67.24;98508.28;5091570;28;20028;-47
2023/05/28 04:19:00;;;;;;;18.48;8.20;;;;;;;17.66;67.35;98505.09;5091511;28;20020;-47
2023/05/28 04:21:28;;;;;;;12.18;7.13;;;;;;;17.67;67.05;98508.56;5091566;28;20024;-47
2023/05/28 04:23:54;;;;;;;22.80;7.75;;;;;;;17.68;67.44;98508.28;5094756;28;20489;-47
2023/05/28 04:26:20;;;;;;;14.10;7.88;;;;;;;17.84;66.68;98516.44;5094310;28;20035;-47
2023/05/28 04:28:46;;;;;;;15.00;7.40;;;;;;;18.07;66.39;98512.63;5094162;28;20031;-46
2023/05/28 04:31:12;;;;;;;18.50;7.88;;;;;;;18.31;65.34;98516.56;5095062;28;20404;-47
2023/05/28 04:33:38;;;;;;;16.77;7.97;;;;;;;18.61;64.56;98522.31;5095384;28;20061;-47
2023/05/28 04:36:07;;;;;;;11.40;7.68;;;;;;;18.97;63.39;98528.66;5093929;28;20024;-47
2023/05/28 04:38:33;;;;;;;14.35;8.20;;;;;;;19.33;62.88;98526.94;5095260;28;20028;-47
2023/05/28 04:40:59;;;;;;;19.40;8.00;;;;;;;19.84;61.19;98523.66;5093871;28;20509;-47
2023/05/28 04:43:26;;;;;;;12.02;7.60;;;;;;;20.34;58.58;98524.72;5095462;28;20145;-47
2023/05/28 04:45:53;;;;;;;11.63;7.38;;;;;;;20.41;57.16;98519.09;5077001;28;20028;-45
2023/05/28 04:48:19;;;;;;;14.43;7.53;;;;;;;20.10;58.14;98524.47;5095066;28;20065;-44
2023/05/28 04:50:45;;;;;;;16.17;8.43;;;;;;;19.87;59.08;98514.31;5094900;28;20101;-45
2023/05/28 04:53:11;;;;;;;11.82;7.65;;;;;;;19.74;59.74;98520.97;5076837;28;20035;-44
2023/05/28 04:55:37;;;;;;;21.52;9.63;;;;;;;19.92;60.10;98520.47;5076839;28;20107;-45
2023/05/28 04:58:02;;;;;;;13.10;7.30;;;;;;;20.69;57.91;98519.63;5094850;28;20512;-45
2023/05/28 05:00:31;;;;;;;18.58;8.63;;;;;;;21.53;55.03;98523.31;5094864;28;20020;-44
2023/05/28 05:02:57;;;;;;;22.58;8.40;;;;;;;21.76;53.73;98518.34;5093728;28;20513;-44
2023/05/28 05:05:23;;;;;;;25.23;8.82;;;;;;;22.13;53.48;98519.69;5094695;28;20028;-44
2023/05/28 05:07:48;;;;;;;14.48;7.38;;;;;;;22.45;52.42;98519.16;5093371;28;20097;-44
2023/05/28 05:10:14;;;;;;;14.27;7.85;;;;;;;22.90;50.73;98518.97;5093268;28;20047;-44
2023/05/28 05:12:40;;;;;;;14.75;7.68;;;;;;;23.03;50.39;98523.66;5093302;28;20075;-45
2023/05/28 05:15:07;;;;;;;12.18;7.25;;;;;;;23.21;49.47;98532.81;5093201;28;20065;-44
2023/05/28 05:17:32;;;;;;;16.77;8.25;;;;;;;23.09;49.24;98519.81;5094448;28;20111;-44
2023/05/28 05:20:01;;;;;;;11.90;7.05;;;;;;;22.89;49.86;98526.19;5094436;28;20024;-45
2023/05/28 05:22:27;;;;;;;16.83;7.93;;;;;;;23.49;48.77;98522.28;5093088;28;20398;-44
2023/05/28 05:24:53;;;;;;;13.05;7.68;;;;;;;24.40;46.15;98515.78;5093031;28;20032;-44
2023/05/28 05:27:18;;;;;;;9.20;7.05;;;;;;;25.04;43.98;98510.59;5076083;28;20844;-44
2023/05/28 05:29:44;;;;;;;15.57;7.03;;;;;;;25.45;43.56;98512.44;5094117;28;20126;-45
2023/05/28 05:32:10;;;;;;;15.40;6.50;;;;;;;25.08;44.41;98511.56;5092983;28;20074;-44
2023/05/28 05:34:36;;;;;;;9.15;6.63;;;;;;;24.76;44.98;98513.28;5093445;28;20020;-44
2023/05/28 05:37:02;;;;;;;14.55;6.55;;;;;;;25.20;44.60;98514.53;5094078;28;20050;-44
2023/05/28 05:39:28;;;;;;;12.13;6.75;;;;;;;26.40;42.15;98514.22;5092790;28;20428;-44
2023/05/28 05:41:54;;;;;;;11.63;6.43;;;;;;;26.65;40.93;98510.09;5092700;28;20036;-44
2023/05/28 05:44:20;;;;;;;13.25;6.68;;;;;;;27.04;39.67;98513.88;5092695;28;20028;-44
2023/05/28 05:46:45;;;;;;;10.85;6.15;;;;;;;27.19;39.19;98505.34;5075773;28;20024;-45
2023/05/28 05:49:11;;;;;;;17.40;6.70;;;;;;;27.36;39.14;98517.28;5093855;28;20020;-45
2023/05/28 05:51:37;;;;;;;13.80;6.88;;;;;;;27.37;39.23;98514.28;5075725;28;20039;-45
2023/05/28 05:54:03;;;;;;;9.40;6.57;;;;;;;27.74;38.47;98513.97;5093811;28;20021;-45
2023/05/28 05:56:29;;;;;;;14.57;6.55;;;;;;;27.62;38.55;98511.91;5093732;28;20031;-45
2023/05/28 05:58:54;;;;;;;21.08;8.25;;;;;;;28.02;38.83;98509.84;5092343;28;20046;-45
2023/05/28 06:01:21;;;;;;;11.40;6.55;;;;;;;28.95;36.15;98502.06;5093739;28;20020;-45
2023/05/28 06:03:47;;;;;;;11.68;6.28;;;;;;;29.65;34.48;98507.81;5092161;28;20020;-45
2023/05/28 06:06:13;;;;;;;9.18;5.55;;;;;;;30.23;34.00;98501.75;5092442;28;20069;-45
2023/05/28 06:08:39;;;;;;;17.17;7.30;;;;;;;30.94;33.28;98499.81;5093523;28;20058;-45
2023/05/28 06:11:05;;;;;;;11.07;6.85;;;;;;;31.09;32.80;98499.13;5092117;28;20020;-45
2023/05/28 06:13:31;;;;;;;9.07;5.70;;;;;;;31.60;32.59;98499.47;5093380;28;20031;-45
2023/05/28 06:15:59;;;;;;;13.70;6.90;;;;;;;32.66;30.92;98498.34;5093365;28;20513;-45
2023/05/28 06:18:26;;;;;;;12.50;7.15;;;;;;;33.52;29.07;98495.59;5093325;28;20050;-46
2023/05/28 06:20:52;;;;;;;10.93;6.00;;;;;;;33.55;28.97;98488.66;5091891;28;20420;-46
2023/05/28 06:23:18;;;;;;;10.70;6.35;;;;;;;34.22;28.29;98491.13;5092257;28;20024;-46
2023/05/28 06:25:44;;;;;;;10.48;6.40;;;;;;;35.14;27.42;98492.94;5091895;28;20028;-45
2023/05/28 06:28:10;;;;;;;12.65;6.03;;;;;;;36.17;25.87;98485.22;5093194;28;20024;-46
2023/05/28 06:30:36;;;;;;;10.63;5.82;;;;;;;37.17;24.67;98487.91;5091537;28;20052;-46
2023/05/28 06:33:02;;;;;;;7.30;5.43;;;;;;;37.68;23.61;98486.19;5091767;28;20502;-46
2023/05/28 06:35:28;;;;;;;7.47;5.70;;;;;;;37.03;24.17;98482.34;5093041;28;20032;-46
2023/05/28 06:37:54;;;;;;;15.63;6.55;;;;;;;37.23;24.03;98477.41;5074659;28;20031;-46
2023/05/28 06:40:20;;;;;;;15.88;6.15;;;;;;;37.81;23.01;98492.06;5092939;28;20055;-46
2023/05/28 06:42:45;;;;;;;11.13;5.72;;;;;;;38.41;22.61;98489.81;5091552;28;20020;-46
2023/05/28 06:45:11;;;;;;;12.70;6.55;;;;;;;39.30;21.89;98488.91;5091254;28;20031;-46
2023/05/28 06:47:37;;;;;;;15.50;5.80;;;;;;;39.94;21.20;98487.84;5090728;28;20020;-47
2023/05/28 06:50:03;;;;;;;11.48;5.90;;;;;;;40.29;20.59;98486.81;5092574;28;20055;-45
2023/05/28 06:52:29;;;;;;;9.45;6.13;;;;;;;40.16;20.44;98488.47;5092655;28;20066;-46
2023/05/28 06:54:55;;;;;;;9.27;6.05;;;;;;;39.66;20.75;98481.34;5092671;28;20035;-47
2023/05/28 06:57:21;;;;;;;10.50;6.00;;;;;;;39.48;20.94;98483.38;5092541;28;20012;-47
2023/05/28 06:59:47;;;;;;;11.23;6.72;;;;;;;39.37;20.94;98488.09;5074367;28;20062;-46
2023/05/28 07:02:13;;;;;;;12.55;6.40;;;;;;;38.75;21.48;98487.47;5092523;28;20012;-46
2023/05/28 07:04:38;;;;;;;15.02;5.95;;;;;;;38.56;21.84;98486.72;5091175;28;20035;-46
2023/05/28 07:07:05;;;;;;;10.98;6.18;;;;;;;38.61;21.91;98480.03;5091102;28;20020;-47
2023/05/28 07:09:31;;;;;;;8.07;6.53;;;;;;;38.50;21.89;98479.25;5091040;28;20398;-46
2023/05/28 07:11:56;;;;;;;12.98;5.78;;;;;;;38.69;21.96;98481.59;5092359;28;20020;-46
2023/05/28 07:14:23;;;;;;;13.57;6.35;;;;;;;38.87;21.41;98475.28;5092297;28;20024;-46
2023/05/28 07:16:48;;;;;;;12.75;6.53;;;;;;;38.27;21.77;98479.63;5074196;28;20020;-46
2023/05/28 07:19:14;;;;;;;11.50;6.78;;;;;;;37.34;22.98;98480.16;5092285;28;20076;-46
2023/05/28 07:21:40;;;;;;;10.75;7.05;;;;;;;36.76;24.04;98490.78;5092176;28;20398;-46
2023/05/28 07:24:06;;;;;;;13.07;7.50;;;;;;;36.52;24.44;98485.88;5092204;28;20032;-46
2023/05/28 07:26:33;;;;;;;13.70;6.70;;;;;;;36.04;24.90;98483.09;5092057;28;20020;-46
2023/05/28 07:29:00;;;;;;;11.82;6.40;;;;;;;36.16;25.11;98488.31;5090782;28;20051;-46
2023/05/28 07:31:26;;;;;;;15.10;7.10;;;;;;;36.19;24.99;98482.09;5091746;28;20044;-46
2023/05/28 07:33:52;;;;;;;10.55;6.40;;;;;;;36.32;25.06;98488.06;5090743;28;20054;-46
2023/05/28 07:36:17;;;;;;;11.75;5.78;;;;;;;36.23;24.82;98490.34;5090628;28;20482;-46
2023/05/28 07:38:43;;;;;;;12.82;6.35;;;;;;;35.45;25.82;98478.16;5090657;28;20024;-46
2023/05/28 07:41:09;;;;;;;16.88;6.20;;;;;;;35.29;26.01;98483.03;5090660;28;20489;-46
2023/05/28 07:43:34;;;;;;;13.15;6.72;;;;;;;35.52;25.94;98472.78;5090571;28;20025;-47
2023/05/28 07:46:00;;;;;;;12.48;7.13;;;;;;;35.82;25.46;98477.44;5091912;28;20023;-46
2023/05/28 07:48:26;;;;;;;8.35;6.43;;;;;;;35.83;25.27;98476.28;5090573;28;20020;-47
2023/05/28 07:50:53;;;;;;;11.30;6.68;;;;;;;36.47;24.46;98476.09;5090394;28;20024;-46
2023/05/28 07:53:18;;;;;;;8.80;5.82;;;;;;;37.28;23.94;98477.00;5091798;28;20024;-46
2023/05/28 07:55:45;;;;;;;9.40;6.13;;;;;;;37.93;23.43;98469.00;5091800;28;20024;-46
2023/05/28 07:58:14;;;;;;;8.85;5.72;;;;;;;38.75;22.65;98471.78;5093997;28;20398;-47
2023/05/28 08:00:39;;;;;;;12.48;5.80;;;;;;;39.41;21.81;98466.91;5094625;28;20512;-46
2023/05/28 08:03:05;;;;;;;9.15;5.55;;;;;;;40.01;20.88;98463.06;5095970;28;20024;-47
2023/05/28 08:05:31;;;;;;;13.73;5.57;;;;;;;40.66;20.14;98459.78;5095817;28;20035;-48
2023/05/28 08:07:57;;;;;;;11.05;5.70;;;;;;;41.58;19.08;98459.13;5094557;28;20023;-48
2023/05/28 08:10:23;;;;;;;15.05;6.10;;;;;;;41.73;19.06;98468.78;5095740;28;20028;-48
2023/05/28 08:12:49;;;;;;;8.82;5.70;;;;;;;41.64;19.11;98461.03;5094436;28;20497;-49
2023/05/28 08:15:15;;;;;;;12.20;5.78;;;;;;;42.37;18.48;98458.72;5095770;28;20034;-49
2023/05/28 08:17:42;;;;;;;10.95;5.63;;;;;;;42.48;18.34;98450.28;5094329;28;20028;-49
2023/05/28 08:20:09;;;;;;;8.70;5.75;;;;;;;42.06;18.40;98444.28;5095689;28;20046;-49
2023/05/28 08:22:36;;;;;;;15.68;5.50;;;;;;;41.65;18.82;98457.06;5095534;28;20505;-48
2023/05/28 08:25:02;;;;;;;14.38;5.75;;;;;;;42.20;18.43;98457.84;5095456;28;20038;-48
2023/05/28 08:27:28;;;;;;;9.88;5.43;;;;;;;42.58;18.10;98454.84;5094215;28;20035;-49
2023/05/28 08:34:21;;;;;;;17.33;6.43;;;;;;;43.26;17.58;98442.50;5095724;28;20039;-49
2023/05/28 08:36:46;;;;;;;11.98;5.50;;;;;;;42.98;17.85;98451.34;5095412;28;20027;-48
2023/05/28 08:39:13;;;;;;;13.32;5.07;;;;;;;42.85;17.46;98440.13;5095409;28;20024;-49
2023/05/28 08:41:42;;;;;;;10.85;5.90;;;;;;;43.38;16.99;98435.53;5095505;28;20448;-49
2023/05/28 08:44:08;;;;;;;16.33;5.63;;;;;;;42.98;17.61;98438.31;5095221;28;20534;-48
2023/05/28 08:46:36;;;;;;;17.50;6.22;;;;;;;42.89;18.09;98433.38;5093848;28;20031;-49
2023/05/28 08:49:03;;;;;;;14.13;5.75;;;;;;;43.37;17.42;98427.69;5093796;28;20529;-49
2023/05/28 08:51:36;;;;;;;13.85;5.35;;;;;;;43.83;16.98;98428.59;5093615;28;20130;-49
2023/05/28 09:06:37;;;;;;;12.13;5.85;;;;;;;44.52;16.14;98417.44;5095050;28;20093;-48
2023/05/28 09:09:07;;;;;;;10.50;5.15;;;;;;;44.51;16.18;98409.56;5092310;28;20141;-49
2023/05/28 09:18:42;;;;;;;11.82;5.05;;;;;;;43.97;16.55;98408.94;5094862;28;20055;-49
2023/05/28 09:21:11;;;;;;;9.20;6.10;;;;;;;44.05;16.57;98402.00;5093099;28;20401;-49
2023/05/28 09:23:39;;;;;;;8.00;4.97;;;;;;;44.08;16.56;98401.16;5093176;28;20024;-49
2023/05/28 09:29:42;;;;;;;8.45;4.90;;;;;;;45.30;15.30;98394.28;5028115;28;20057;-48
2023/05/28 09:32:08;;;;;;;12.68;5.55;;;;;;;44.97;15.60;98396.44;5015264;28;20102;-49
2023/05/28 09:34:37;;;;;;;11.55;5.35;;;;;;;44.94;15.66;98391.78;5031840;28;20499;-49
2023/05/28 09:37:06;;;;;;;8.15;5.13;;;;;;;44.52;16.12;98392.53;5031785;28;20032;-49
2023/05/28 09:42:56;;;;;;;10.45;4.85;;;;;;;44.69;15.50;98387.69;5018041;28;20034;-48
2023/05/28 09:51:54;;;;;;;13.10;5.70;;;;;;;42.79;17.31;98384.66;5031282;28;20080;-49
2023/05/28 09:54:21;;;;;;;16.90;6.13;;;;;;;42.86;17.53;98372.69;5031571;28;20026;-49
2023/05/28 09:57:01;;;;;;;;;;;;;;;;;;;;;
2023/05/28 09:59:31;;;;;;;7.30;4.80;;;;;;;43.80;16.38;98371.44;5027375;28;20063;-48
2023/05/28 10:02:01;;;;;;;7.50;5.10;;;;;;;44.21;16.06;98372.75;5014666;28;20120;-48
2023/05/28 10:04:47;;;;;;;10.20;5.40;;;;;;;44.40;16.04;98376.63;5033060;28;20481;-49
2023/05/28 10:14:03;;;;;;;9.20;4.50;;;;;;;45.36;15.18;98366.75;5113831;28;20035;-49
2023/05/28 10:19:52;;;;;;;12.82;4.93;;;;;;;44.83;15.58;98367.13;5113919;28;20046;-49
2023/05/28 10:32:43;;;;;;;12.30;5.13;;;;;;;40.27;18.85;98361.91;5113474;28;20093;-48
2023/05/28 10:35:12;;;;;;;11.30;5.13;;;;;;;39.97;19.69;98357.09;5095090;28;20035;-49
2023/05/28 10:37:39;;;;;;;9.88;4.65;;;;;;;40.18;19.33;98353.34;5095056;28;20024;-48
2023/05/28 10:41:07;;;;;;;8.18;4.88;;;;;;;40.99;18.80;98352.88;5113210;28;20100;-49
2023/05/28 10:43:39;;;;;;;9.85;4.88;;;;;;;42.00;17.78;98350.22;5092011;28;20544;-49
2023/05/28 10:46:35;;;;;;;10.52;4.72;;;;;;;42.36;17.60;98343.28;5111818;28;20035;-48
2023/05/28 10:49:10;;;;;;;10.57;5.10;;;;;;;42.64;17.31;98347.47;5112206;28;20397;-49
2023/05/28 11:12:07;;;;;;;5.75;4.28;;;;;;;43.26;16.54;98304.38;5112234;28;20086;-49
2023/05/28 11:22:09;;;;;;;11.32;4.30;;;;;;;41.74;18.12;98302.22;5112843;28;20542;-48
2023/05/28 11:31:39;;;;;;;7.82;5.07;;;;;;;41.53;18.25;98284.03;5009281;28;20095;-48
2023/05/28 11:34:06;;;;;;;9.35;4.97;;;;;;;41.53;17.82;98289.53;5009609;28;20042;-49
2023/05/28 11:37:05;;;;;;;10.48;4.88;;;;;;;41.14;18.22;98288.16;5009858;28;20113;-49
2023/05/28 11:42:29;;;;;;;10.85;4.53;;;;;;;40.72;18.73;98282.81;5006801;28;20111;-48
2023/05/28 11:44:56;;;;;;;12.95;4.80;;;;;;;41.06;19.06;98268.22;5009886;28;20053;-48
2023/05/28 11:47:22;;;;;;;11.07;4.55;;;;;;;41.29;18.31;98274.97;5009801;28;20057;-49
2023/05/28 11:49:49;;;;;;;8.27;4.70;;;;;;;41.28;18.40;98273.44;5009651;28;20042;-48
2023/05/28 11:52:17;;;;;;;10.75;4.60;;;;;;;41.59;18.16;98265.06;5009720;28;20081;-48
2023/05/28 12:00:56;;;;;;;10.23;4.18;;;;;;;41.69;17.96;98247.59;4923061;28;20034;-48
2023/05/28 12:03:26;;;;;;;11.13;5.10;;;;;;;42.17;17.41;98242.78;5006236;28;20045;-48
2023/05/28 12:05:52;;;;;;;11.25;4.18;;;;;;;42.31;17.22;98237.75;5029404;28;20030;-48
2023/05/28 12:15:24;;;;;;;12.35;4.47;;;;;;;41.97;18.06;98231.72;5029469;28;20036;-48
2023/05/28 12:18:02;;;;;;;8.70;4.47;;;;;;;41.52;18.43;98236.44;5029278;28;20411;-48
2023/05/28 12:20:31;;;;;;;7.97;3.97;;;;;;;41.35;18.54;98234.75;5029204;28;20037;-48
2023/05/28 12:26:18;;;;;;;13.40;4.63;;;;;;;40.69;19.18;98231.38;5029211;28;20120;-48
2023/05/28 12:28:44;;;;;;;13.68;4.60;;;;;;;40.84;18.99;98217.44;5029052;28;20037;-49
2023/05/28 12:31:14;;;;;;;7.28;4.28;;;;;;;40.93;18.85;98220.44;5012357;28;20053;-48
2023/05/28 12:33:40;;;;;;;9.65;4.38;;;;;;;40.53;19.18;98223.72;5070823;28;20092;-48
2023/05/28 12:36:21;;;;;;;11.60;4.55;;;;;;;40.51;19.28;98228.09;5111750;28;20024;-48
2023/05/28 12:38:50;;;;;;;6.20;3.97;;;;;;;40.90;18.69;98211.03;5111799;28;20119;-49
2023/05/28 12:41:31;;;;;;;8.38;4.05;;;;;;;41.11;18.31;98209.13;5093447;28;20501;-48
2023/05/28 12:43:57;;;;;;;10.23;4.63;;;;;;;41.23;17.92;98210.56;5095088;28;20564;-48
2023/05/28 12:46:23;;;;;;;7.28;3.60;;;;;;;41.29;17.88;98214.38;5114177;28;20056;-48
2023/05/28 12:48:50;;;;;;;12.88;4.13;;;;;;;41.07;17.78;98211.97;5115505;28;20118;-49
2023/05/28 12:51:16;;;;;;;13.68;4.13;;;;;;;41.06;17.72;98204.91;5115365;28;20027;-48
2023/05/28 12:53:43;;;;;;;19.50;5.15;;;;;;;41.23;17.74;98205.84;5097101;28;20035;-48
2023/05/28 12:59:33;;;;;;;8.70;4.70;;;;;;;40.88;18.27;98207.91;5115363;28;20027;-48
2023/05/28 13:01:59;;;;;;;8.23;4.10;;;;;;;40.13;18.79;98211.63;5115258;28;20023;-48
2023/05/28 13:04:25;;;;;;;11.65;4.55;;;;;;;39.82;19.02;98206.03;5080064;28;20451;-48
2023/05/28 13:06:51;;;;;;;9.40;3.75;;;;;;;39.33;19.04;98202.56;5113815;28;20062;-48
2023/05/28 13:09:17;;;;;;;6.40;4.13;;;;;;;39.02;19.36;98204.38;5115070;28;20024;-49
2023/05/28 13:11:44;;;;;;;8.27;3.90;;;;;;;38.73;19.33;98205.31;5096669;28;20042;-48
2023/05/28 13:14:10;;;;;;;11.75;4.47;;;;;;;38.28;19.97;98198.88;5114947;28;20378;-48
2023/05/28 13:16:37;;;;;;;5.57;3.50;;;;;;;37.74;19.97;98185.31;5096625;28;20095;-48
2023/05/28 13:19:03;;;;;;;7.72;4.30;;;;;;;37.45;20.40;98179.84;5096710;28;20031;-48
2023/05/28 13:21:31;;;;;;;13.77;4.03;;;;;;;37.35;20.70;98180.66;5114866;28;20552;-48
2023/05/28 13:24:02;;;;;;;6.70;4.00;;;;;;;37.02;21.35;98179.03;5115092;28;20041;-48
2023/05/28 13:26:29;;;;;;;10.68;4.63;;;;;;;36.89;20.85;98179.44;5114779;28;20035;-48